createdAt,value
2019-05-14T00:00:04.778Z,5.20
2019-05-14T00:01:04.713Z,5.20
2019-05-14T00:02:05.155Z,5.20
2019-05-14T00:03:04.209Z,5.20
2019-05-14T00:04:04.911Z,5.20
2019-05-14T00:05:05.085Z,5.20
2019-05-14T00:06:04.691Z,5.20
2019-05-14T00:07:04.769Z,5.20
2019-05-14T00:08:04.336Z,5.20
2019-05-14T00:09:05.011Z,5.20
2019-05-14T00:10:04.555Z,5.20
2019-05-14T00:11:04.787Z,5.20
2019-05-14T00:12:04.878Z,5.20
2019-05-14T00:13:04.275Z,5.20
2019-05-14T00:14:05.026Z,5.20
2019-05-14T00:15:05.142Z,5.20
2019-05-14T00:16:05.299Z,5.20
2019-05-14T00:17:04.397Z,5.20
2019-05-14T00:18:04.613Z,5.10
2019-05-14T00:19:04.931Z,5.10
2019-05-14T00:20:09.083Z,5.10
2019-05-14T00:21:04.578Z,5.10
2019-05-14T00:22:04.601Z,5.10
2019-05-14T00:23:04.898Z,5.10
2019-05-14T00:24:04.383Z,5.10
2019-05-14T00:25:05.016Z,5.10
2019-05-14T00:26:04.339Z,5.10
2019-05-14T00:27:04.750Z,5.10
2019-05-14T00:28:04.791Z,5.00
2019-05-14T00:29:05.048Z,5.00
2019-05-14T00:30:04.542Z,5.00
2019-05-14T00:31:05.222Z,5.00
2019-05-14T00:32:04.259Z,5.00
2019-05-14T00:33:04.657Z,5.00
2019-05-14T00:34:05.140Z,5.00
2019-05-14T00:35:04.673Z,5.00
2019-05-14T00:36:04.606Z,5.00
2019-05-14T00:37:04.871Z,4.90
2019-05-14T00:38:05.069Z,4.90
2019-05-14T00:39:05.172Z,4.90
2019-05-14T00:40:04.468Z,4.90
2019-05-14T00:41:04.459Z,4.90
2019-05-14T00:42:05.066Z,4.90
2019-05-14T00:43:04.284Z,4.80
2019-05-14T00:44:09.776Z,4.80
2019-05-14T00:45:04.694Z,4.80
2019-05-14T00:46:04.961Z,4.80
2019-05-14T00:47:04.296Z,4.80
2019-05-14T00:48:04.723Z,4.80
2019-05-14T00:49:04.247Z,4.70
2019-05-14T00:50:04.323Z,4.70
2019-05-14T00:51:04.582Z,4.70
2019-05-14T00:52:05.035Z,4.70
2019-05-14T00:53:04.509Z,4.70
2019-05-14T00:54:04.513Z,4.70
2019-05-14T00:55:04.781Z,4.60
2019-05-14T00:56:04.914Z,4.60
2019-05-14T00:57:04.511Z,4.60
2019-05-14T00:58:04.129Z,4.60
2019-05-14T00:59:04.823Z,4.60
2019-05-14T01:00:04.264Z,4.60
2019-05-14T01:01:04.585Z,4.50
2019-05-14T01:02:04.872Z,4.50
2019-05-14T01:03:04.429Z,4.50
2019-05-14T01:04:04.781Z,4.50
2019-05-14T01:05:04.899Z,4.40
2019-05-14T01:06:05.108Z,4.40
2019-05-14T01:07:04.958Z,4.40
2019-05-14T01:08:04.415Z,4.40
2019-05-14T01:09:04.559Z,4.40
2019-05-14T01:10:04.961Z,4.40
2019-05-14T01:11:04.493Z,4.40
2019-05-14T01:12:04.589Z,4.30
2019-05-14T01:13:04.796Z,4.30
2019-05-14T01:14:04.849Z,4.30
2019-05-14T01:15:10.574Z,4.30
2019-05-14T01:16:04.462Z,4.30
2019-05-14T01:17:04.567Z,4.30
2019-05-14T01:18:05.021Z,4.30
2019-05-14T01:19:05.203Z,4.20
2019-05-14T01:20:05.184Z,4.20
2019-05-14T01:21:04.344Z,4.20
2019-05-14T01:22:09.371Z,4.20
2019-05-14T01:23:04.328Z,4.20
2019-05-14T01:24:04.827Z,4.20
2019-05-14T01:25:05.017Z,4.20
2019-05-14T01:26:04.633Z,4.20
2019-05-14T01:27:04.638Z,4.20
2019-05-14T01:28:04.188Z,4.20
2019-05-14T01:29:04.834Z,4.10
2019-05-14T01:30:05.170Z,4.10
2019-05-14T01:31:04.296Z,4.10
2019-05-14T01:32:04.482Z,4.10
2019-05-14T01:33:04.520Z,4.10
2019-05-14T01:34:04.755Z,4.10
2019-05-14T01:35:04.460Z,4.10
2019-05-14T01:36:04.513Z,4.10
2019-05-14T01:37:04.426Z,4.10
2019-05-14T01:38:04.476Z,4.10
2019-05-14T01:39:04.575Z,4.10
2019-05-14T01:40:04.571Z,4.00
2019-05-14T01:42:05.069Z,4.00
2019-05-14T01:42:24.704Z,4.00
2019-05-14T01:43:04.812Z,4.00
2019-05-14T01:44:04.378Z,3.90
2019-05-14T01:45:06.243Z,3.90
2019-05-14T01:46:04.666Z,3.90
2019-05-14T01:47:04.783Z,3.80
2019-05-14T01:48:04.477Z,3.80
2019-05-14T01:49:04.244Z,3.80
2019-05-14T01:50:04.808Z,3.80
2019-05-14T01:51:04.869Z,3.70
2019-05-14T01:52:04.429Z,3.70
2019-05-14T01:53:04.476Z,3.70
2019-05-14T01:54:04.550Z,3.60
2019-05-14T01:55:04.967Z,3.60
2019-05-14T01:56:04.805Z,3.60
2019-05-14T01:57:04.967Z,3.60
2019-05-14T01:58:05.079Z,3.60
2019-05-14T01:59:05.181Z,3.60
2019-05-14T02:00:05.075Z,3.60
2019-05-14T02:01:04.222Z,3.60
2019-05-14T02:02:04.345Z,3.60
2019-05-14T02:03:05.477Z,3.60
2019-05-14T02:04:06.157Z,3.60
2019-05-14T02:05:04.188Z,3.50
2019-05-14T02:06:04.477Z,3.50
2019-05-14T02:07:04.409Z,3.60
2019-05-14T02:08:05.088Z,3.60
2019-05-14T02:09:04.482Z,3.60
2019-05-14T02:10:05.186Z,3.60
2019-05-14T02:11:04.492Z,3.60
2019-05-14T02:12:04.467Z,3.70
2019-05-14T02:13:04.299Z,3.70
2019-05-14T02:14:04.750Z,3.70
2019-05-14T02:15:04.209Z,3.80
2019-05-14T02:16:04.547Z,3.80
2019-05-14T02:17:04.796Z,3.80
2019-05-14T02:18:04.807Z,3.80
2019-05-14T02:19:04.845Z,3.90
2019-05-14T02:20:04.347Z,3.90
2019-05-14T02:21:04.847Z,3.90
2019-05-14T02:22:05.022Z,3.90
2019-05-14T02:23:05.088Z,3.90
2019-05-14T02:24:04.510Z,3.90
2019-05-14T02:25:04.504Z,4.00
2019-05-14T02:26:04.616Z,4.00
2019-05-14T02:27:04.681Z,4.00
2019-05-14T02:28:04.796Z,4.00
2019-05-14T02:29:04.307Z,4.00
2019-05-14T02:30:04.374Z,4.00
2019-05-14T02:31:04.627Z,4.00
2019-05-14T02:32:04.663Z,4.00
2019-05-14T02:33:04.788Z,4.10
2019-05-14T02:34:04.904Z,4.10
2019-05-14T02:35:04.990Z,4.10
2019-05-14T02:36:04.912Z,4.10
2019-05-14T02:37:04.212Z,4.10
2019-05-14T02:38:04.935Z,4.10
2019-05-14T02:39:05.068Z,4.20
2019-05-14T02:40:04.259Z,4.20
2019-05-14T02:41:04.560Z,4.20
2019-05-14T02:42:04.727Z,4.20
2019-05-14T02:43:04.296Z,4.20
2019-05-14T02:44:04.298Z,4.20
2019-05-14T02:45:04.476Z,4.20
2019-05-14T02:46:11.136Z,4.20
2019-05-14T02:47:04.819Z,4.20
2019-05-14T02:48:05.059Z,4.30
2019-05-14T02:49:04.293Z,4.30
2019-05-14T02:50:04.254Z,4.30
2019-05-14T02:51:05.009Z,4.30
2019-05-14T02:52:05.160Z,4.30
2019-05-14T02:53:05.084Z,4.30
2019-05-14T02:54:04.354Z,4.30
2019-05-14T02:55:04.746Z,4.30
2019-05-14T02:56:05.181Z,4.30
2019-05-14T02:57:04.287Z,4.30
2019-05-14T02:58:04.269Z,4.30
2019-05-14T02:59:05.723Z,4.30
2019-05-14T03:00:05.123Z,4.30
2019-05-14T03:01:05.265Z,4.30
2019-05-14T03:02:05.191Z,4.30
2019-05-14T03:03:04.878Z,4.30
2019-05-14T03:04:09.963Z,4.30
2019-05-14T03:05:04.551Z,4.30
2019-05-14T03:06:04.606Z,4.30
2019-05-14T03:07:05.126Z,4.30
2019-05-14T03:08:04.706Z,4.30
2019-05-14T03:09:04.621Z,4.30
2019-05-14T03:10:04.422Z,4.30
2019-05-14T03:11:04.953Z,4.30
2019-05-14T03:12:05.188Z,4.40
2019-05-14T03:13:05.155Z,4.30
2019-05-14T03:14:04.321Z,4.40
2019-05-14T03:15:04.442Z,4.40
2019-05-14T03:16:20.647Z,4.40
2019-05-14T03:17:04.618Z,4.40
2019-05-14T03:18:04.219Z,4.40
2019-05-14T03:19:04.468Z,4.40
2019-05-14T03:20:04.410Z,4.40
2019-05-14T03:21:04.774Z,4.40
2019-05-14T03:22:05.029Z,4.40
2019-05-14T03:23:08.851Z,4.40
2019-05-14T03:24:04.785Z,4.40
2019-05-14T03:25:04.853Z,4.40
2019-05-14T03:26:05.073Z,4.40
2019-05-14T03:27:04.855Z,4.40
2019-05-14T03:28:05.057Z,4.40
2019-05-14T03:29:04.606Z,4.40
2019-05-14T03:30:04.554Z,4.40
2019-05-14T03:31:04.922Z,4.40
2019-05-14T03:32:04.703Z,4.40
2019-05-14T03:33:04.940Z,4.40
2019-05-14T03:34:04.448Z,4.30
2019-05-14T03:35:04.894Z,4.30
2019-05-14T03:36:08.665Z,4.40
2019-05-14T03:37:05.179Z,4.30
2019-05-14T03:38:04.458Z,4.40
2019-05-14T03:39:04.660Z,4.30
2019-05-14T03:40:04.932Z,4.30
2019-05-14T03:41:09.329Z,4.30
2019-05-14T03:42:05.157Z,4.30
2019-05-14T03:43:04.231Z,4.30
2019-05-14T03:44:09.987Z,4.30
2019-05-14T03:45:04.444Z,4.30
2019-05-14T03:46:04.415Z,4.30
2019-05-14T03:47:05.636Z,4.20
2019-05-14T03:48:05.018Z,4.20
2019-05-14T03:49:05.249Z,4.30
2019-05-14T03:50:04.830Z,4.20
2019-05-14T03:51:04.904Z,4.20
2019-05-14T03:52:04.419Z,4.20
2019-05-14T03:53:04.785Z,4.20
2019-05-14T03:54:07.590Z,4.20
2019-05-14T03:55:04.887Z,4.20
2019-05-14T03:56:05.088Z,4.20
2019-05-14T03:57:04.978Z,4.20
2019-05-14T03:58:04.534Z,4.20
2019-05-14T03:59:04.763Z,4.20
2019-05-14T04:00:04.451Z,4.20
2019-05-14T04:01:04.520Z,4.20
2019-05-14T04:02:04.244Z,4.20
2019-05-14T04:03:04.626Z,4.20
2019-05-14T04:04:04.404Z,4.20
2019-05-14T04:05:04.697Z,4.20
2019-05-14T04:06:05.033Z,4.20
2019-05-14T04:07:04.837Z,4.20
2019-05-14T04:08:04.828Z,4.20
2019-05-14T04:09:05.048Z,4.30
2019-05-14T04:10:04.898Z,4.40
2019-05-14T04:11:04.271Z,4.50
2019-05-14T04:12:04.382Z,4.60
2019-05-14T04:13:04.553Z,4.80
2019-05-14T04:14:04.684Z,5.00
2019-05-14T04:15:05.165Z,5.10
2019-05-14T04:16:04.640Z,5.30
2019-05-14T04:17:10.789Z,5.50
2019-05-14T04:18:04.679Z,5.70
2019-05-14T04:19:04.821Z,5.90
2019-05-14T04:20:04.617Z,6.10
2019-05-14T04:21:04.378Z,6.20
2019-05-14T04:22:04.534Z,6.40
2019-05-14T04:23:04.775Z,6.60
2019-05-14T04:24:04.509Z,6.80
2019-05-14T04:25:05.339Z,6.90
2019-05-14T04:26:05.116Z,7.10
2019-05-14T04:27:08.957Z,7.30
2019-05-14T04:28:05.118Z,7.40
2019-05-14T04:29:05.218Z,7.60
2019-05-14T04:30:04.389Z,7.80
2019-05-14T04:31:04.389Z,8.00
2019-05-14T04:32:04.647Z,8.10
2019-05-14T04:33:04.750Z,8.30
2019-05-14T04:34:04.267Z,8.40
2019-05-14T04:35:04.311Z,8.60
2019-05-14T04:36:04.629Z,8.70
2019-05-14T04:37:04.692Z,8.80
2019-05-14T04:38:05.023Z,8.90
2019-05-14T04:39:05.060Z,9.10
2019-05-14T04:40:04.636Z,9.20
2019-05-14T04:41:04.774Z,9.40
2019-05-14T04:42:05.046Z,9.50
2019-05-14T04:43:04.354Z,9.70
2019-05-14T04:44:04.518Z,9.80
2019-05-14T04:45:05.654Z,9.90
2019-05-14T04:46:04.843Z,10.10
2019-05-14T04:47:22.427Z,10.20
2019-05-14T04:48:23.821Z,10.30
2019-05-14T04:49:04.853Z,10.40
2019-05-14T04:50:04.365Z,10.60
2019-05-14T04:51:04.723Z,10.70
2019-05-14T04:52:04.805Z,10.80
2019-05-14T04:53:05.006Z,10.90
2019-05-14T04:54:04.260Z,11.10
2019-05-14T04:55:04.396Z,11.20
2019-05-14T04:56:04.431Z,11.30
2019-05-14T04:57:04.713Z,11.50
2019-05-14T04:58:05.155Z,11.60
2019-05-14T04:59:04.369Z,11.70
2019-05-14T05:00:04.200Z,11.80
2019-05-14T05:01:04.494Z,11.90
2019-05-14T05:02:04.601Z,12.00
2019-05-14T05:03:08.340Z,12.10
2019-05-14T05:04:09.758Z,12.10
2019-05-14T05:05:05.131Z,12.20
2019-05-14T05:06:04.695Z,12.30
2019-05-14T05:07:04.869Z,12.40
2019-05-14T05:08:04.964Z,12.50
2019-05-14T05:09:04.205Z,12.50
2019-05-14T05:10:05.258Z,12.70
2019-05-14T05:11:04.829Z,12.70
2019-05-14T05:12:05.112Z,12.80
2019-05-14T05:13:04.817Z,12.80
2019-05-14T05:14:05.039Z,12.90
2019-05-14T05:15:04.616Z,13.00
2019-05-14T05:16:05.126Z,13.10
2019-05-14T05:17:04.321Z,13.10
2019-05-14T05:18:04.466Z,13.20
2019-05-14T05:19:04.719Z,13.30
2019-05-14T05:20:04.698Z,13.30
2019-05-14T05:21:04.717Z,13.30
2019-05-14T05:22:04.495Z,13.40
2019-05-14T05:23:04.372Z,13.50
2019-05-14T05:24:05.363Z,13.50
2019-05-14T05:25:04.739Z,13.60
2019-05-14T05:26:04.979Z,13.60
2019-05-14T05:27:04.812Z,13.70
2019-05-14T05:28:04.344Z,13.80
2019-05-14T05:29:06.969Z,13.90
2019-05-14T05:30:04.846Z,14.00
2019-05-14T05:31:06.190Z,14.00
2019-05-14T05:32:05.036Z,14.10
2019-05-14T05:33:04.349Z,14.20
2019-05-14T05:34:04.856Z,14.20
2019-05-14T05:35:04.882Z,14.30
2019-05-14T05:36:05.099Z,14.30
2019-05-14T05:37:05.126Z,14.40
2019-05-14T05:38:04.212Z,14.50
2019-05-14T05:39:04.409Z,14.60
2019-05-14T05:40:04.603Z,14.70
2019-05-14T05:41:04.616Z,14.70
2019-05-14T05:42:04.767Z,14.80
2019-05-14T05:43:04.274Z,14.80
2019-05-14T05:44:04.644Z,14.90
2019-05-14T05:45:04.943Z,14.90
2019-05-14T05:46:04.932Z,15.00
2019-05-14T05:47:04.588Z,15.00
2019-05-14T05:48:04.797Z,15.00
2019-05-14T05:49:04.725Z,15.10
2019-05-14T05:50:04.753Z,15.10
2019-05-14T05:51:05.191Z,15.10
2019-05-14T05:52:04.795Z,15.20
2019-05-14T05:53:04.210Z,15.30
2019-05-14T05:54:04.545Z,15.30
2019-05-14T05:55:04.620Z,15.40
2019-05-14T05:56:04.721Z,15.40
2019-05-14T05:57:04.871Z,15.40
2019-05-14T05:58:04.950Z,15.30
2019-05-14T05:59:04.286Z,15.20
2019-05-14T06:00:05.095Z,15.10
2019-05-14T06:01:04.350Z,15.00
2019-05-14T06:02:04.358Z,15.00
2019-05-14T06:03:04.610Z,15.00
2019-05-14T06:04:04.738Z,15.00
2019-05-14T06:05:04.733Z,15.00
2019-05-14T06:06:04.338Z,15.00
2019-05-14T06:07:04.783Z,15.00
2019-05-14T06:08:04.902Z,15.00
2019-05-14T06:09:04.877Z,15.00
2019-05-14T06:10:04.876Z,15.00
2019-05-14T06:11:04.307Z,14.90
2019-05-14T06:12:05.082Z,14.90
2019-05-14T06:13:04.602Z,14.80
2019-05-14T06:14:04.878Z,14.60
2019-05-14T06:15:04.627Z,14.50
2019-05-14T06:16:04.749Z,14.40
2019-05-14T06:17:05.082Z,14.30
2019-05-14T06:18:14.914Z,14.10
2019-05-14T06:19:05.031Z,14.00
2019-05-14T06:20:04.851Z,13.90
2019-05-14T06:21:05.040Z,13.80
2019-05-14T06:22:04.399Z,13.70
2019-05-14T06:23:04.712Z,13.60
2019-05-14T06:24:04.965Z,13.40
2019-05-14T06:25:04.653Z,13.30
2019-05-14T06:26:05.233Z,13.20
2019-05-14T06:27:04.350Z,13.10
2019-05-14T06:28:04.517Z,13.00
2019-05-14T06:29:04.363Z,12.90
2019-05-14T06:30:04.308Z,12.80
2019-05-14T06:31:04.538Z,12.70
2019-05-14T06:32:04.880Z,12.70
2019-05-14T06:33:04.239Z,12.70
2019-05-14T06:34:04.893Z,12.70
2019-05-14T06:35:05.104Z,12.70
2019-05-14T06:36:04.529Z,12.70
2019-05-14T06:37:04.662Z,12.70
2019-05-14T06:38:05.151Z,12.70
2019-05-14T06:39:05.158Z,12.70
2019-05-14T06:40:04.603Z,12.60
2019-05-14T06:41:04.370Z,12.50
2019-05-14T06:42:04.535Z,12.40
2019-05-14T06:43:04.663Z,12.40
2019-05-14T06:44:04.842Z,12.30
2019-05-14T06:45:04.893Z,12.30
2019-05-14T06:46:09.724Z,12.20
2019-05-14T06:47:04.178Z,12.10
2019-05-14T06:48:04.686Z,12.10
2019-05-14T06:49:04.609Z,12.00
2019-05-14T06:50:04.721Z,12.00
2019-05-14T06:51:04.995Z,11.90
2019-05-14T06:52:04.551Z,11.80
2019-05-14T06:53:04.598Z,11.80
2019-05-14T06:54:04.775Z,11.70
2019-05-14T06:55:05.087Z,11.70
2019-05-14T06:56:04.747Z,11.60
2019-05-14T06:57:04.385Z,11.60
2019-05-14T06:58:04.562Z,11.50
2019-05-14T06:59:04.893Z,11.40
2019-05-14T07:00:04.695Z,11.40
2019-05-14T07:01:04.999Z,11.30
2019-05-14T07:02:04.982Z,11.30
2019-05-14T07:03:04.967Z,11.20
2019-05-14T07:04:04.736Z,11.20
2019-05-14T07:05:04.419Z,11.10
2019-05-14T07:06:09.983Z,11.00
2019-05-14T07:07:04.434Z,11.00
2019-05-14T07:08:04.608Z,11.00
2019-05-14T07:09:05.123Z,10.90
2019-05-14T07:10:04.896Z,10.90
2019-05-14T07:11:04.889Z,10.90
2019-05-14T07:12:04.835Z,10.90
2019-05-14T07:13:04.910Z,10.80
2019-05-14T07:14:08.018Z,10.80
2019-05-14T07:15:05.130Z,10.80
2019-05-14T07:16:05.079Z,10.70
2019-05-14T07:17:05.212Z,10.70
2019-05-14T07:18:04.328Z,10.70
2019-05-14T07:19:04.521Z,10.70
2019-05-14T07:20:04.343Z,10.70
2019-05-14T07:21:04.509Z,10.60
2019-05-14T07:22:04.695Z,10.60
2019-05-14T07:23:05.044Z,10.70
2019-05-14T07:24:04.664Z,10.70
2019-05-14T07:25:05.030Z,10.70
2019-05-14T07:26:04.492Z,10.70
2019-05-14T07:27:04.669Z,10.70
2019-05-14T07:28:04.913Z,10.70
2019-05-14T07:29:04.889Z,10.80
2019-05-14T07:30:04.708Z,10.80
2019-05-14T07:31:04.603Z,10.80
2019-05-14T07:32:04.776Z,10.80
2019-05-14T07:33:04.669Z,10.90
2019-05-14T07:34:04.758Z,10.90
2019-05-14T07:35:04.877Z,10.90
2019-05-14T07:36:04.745Z,10.90
2019-05-14T07:37:05.183Z,11.00
2019-05-14T07:38:04.927Z,11.00
2019-05-14T07:39:04.244Z,11.00
2019-05-14T07:40:05.065Z,11.00
2019-05-14T07:41:04.766Z,11.00
2019-05-14T07:42:04.927Z,11.10
2019-05-14T07:43:04.559Z,11.10
2019-05-14T07:44:09.604Z,11.10
2019-05-14T07:45:05.135Z,11.10
2019-05-14T07:46:04.293Z,11.20
2019-05-14T07:47:04.401Z,11.20
2019-05-14T07:48:04.797Z,11.20
2019-05-14T07:49:08.522Z,11.20
2019-05-14T07:50:04.338Z,11.20
2019-05-14T07:51:04.373Z,11.20
2019-05-14T07:52:04.776Z,11.20
2019-05-14T07:53:04.879Z,11.20
2019-05-14T07:54:04.894Z,11.20
2019-05-14T07:55:04.557Z,11.20
2019-05-14T07:56:04.968Z,11.20
2019-05-14T07:57:05.131Z,11.20
2019-05-14T07:58:05.053Z,11.20
2019-05-14T07:59:04.678Z,11.30
2019-05-14T08:00:04.598Z,11.30
2019-05-14T08:01:04.878Z,11.30
2019-05-14T08:02:04.907Z,11.30
2019-05-14T08:03:04.685Z,11.40
2019-05-14T08:04:11.325Z,11.40
2019-05-14T08:05:04.515Z,11.50
2019-05-14T08:06:04.600Z,11.60
2019-05-14T08:07:04.776Z,11.60
2019-05-14T08:08:05.017Z,11.60
2019-05-14T08:09:04.432Z,11.60
2019-05-14T08:10:05.235Z,11.60
2019-05-14T08:11:04.261Z,11.60
2019-05-14T08:12:04.310Z,11.60
2019-05-14T08:13:04.480Z,11.50
2019-05-14T08:14:04.919Z,11.60
2019-05-14T08:15:15.093Z,11.60
2019-05-14T08:16:04.419Z,11.60
2019-05-14T08:17:04.779Z,11.50
2019-05-14T08:18:04.288Z,11.50
2019-05-14T08:19:06.260Z,11.40
2019-05-14T08:20:05.159Z,11.40
2019-05-14T08:21:04.288Z,11.40
2019-05-14T08:22:05.135Z,11.30
2019-05-14T08:23:04.456Z,11.20
2019-05-14T08:24:04.532Z,11.20
2019-05-14T08:25:04.756Z,11.20
2019-05-14T08:26:05.009Z,11.10
2019-05-14T08:27:05.058Z,11.10
2019-05-14T08:28:04.290Z,11.00
2019-05-14T08:29:04.395Z,11.00
2019-05-14T08:30:04.185Z,11.10
2019-05-14T08:31:04.455Z,11.20
2019-05-14T08:32:05.100Z,11.20
2019-05-14T08:33:04.638Z,11.30
2019-05-14T08:34:05.154Z,11.40
2019-05-14T08:35:04.322Z,11.50
2019-05-14T08:36:04.470Z,11.50
2019-05-14T08:37:05.449Z,11.60
2019-05-14T08:38:08.453Z,11.70
2019-05-14T08:39:04.738Z,11.70
2019-05-14T08:40:04.611Z,11.80
2019-05-14T08:41:04.354Z,11.90
2019-05-14T08:42:04.876Z,11.90
2019-05-14T08:43:05.141Z,11.90
2019-05-14T08:44:09.408Z,12.00
2019-05-14T08:45:04.674Z,12.00
2019-05-14T08:46:04.303Z,12.10
2019-05-14T08:47:04.593Z,12.10
2019-05-14T08:48:04.223Z,12.20
2019-05-14T08:49:04.850Z,12.20
2019-05-14T08:50:04.977Z,12.40
2019-05-14T08:51:04.890Z,12.50
2019-05-14T08:52:04.987Z,12.60
2019-05-14T08:53:05.066Z,12.70
2019-05-14T08:54:05.271Z,12.90
2019-05-14T08:55:09.919Z,12.90
2019-05-14T08:56:04.616Z,13.00
2019-05-14T08:57:04.570Z,13.00
2019-05-14T08:58:04.735Z,12.90
2019-05-14T08:59:04.440Z,12.80
2019-05-14T09:00:04.380Z,12.70
2019-05-14T09:01:04.650Z,12.70
2019-05-14T09:02:06.463Z,12.60
2019-05-14T09:03:04.866Z,12.50
2019-05-14T09:04:10.199Z,12.40
2019-05-14T09:05:05.137Z,12.40
2019-05-14T09:06:04.567Z,12.50
2019-05-14T09:07:04.808Z,12.50
2019-05-14T09:08:04.887Z,12.50
2019-05-14T09:09:05.037Z,12.60
2019-05-14T09:10:05.212Z,12.70
2019-05-14T09:11:04.968Z,12.80
2019-05-14T09:12:05.084Z,12.90
2019-05-14T09:13:04.271Z,12.90
2019-05-14T09:14:04.506Z,13.00
2019-05-14T09:15:04.448Z,13.10
2019-05-14T09:16:04.714Z,13.20
2019-05-14T09:17:04.919Z,13.40
2019-05-14T09:18:05.221Z,13.40
2019-05-14T09:19:04.324Z,13.50
2019-05-14T09:20:07.089Z,13.60
2019-05-14T09:21:04.642Z,13.70
2019-05-14T09:22:05.016Z,13.70
2019-05-14T09:23:05.110Z,13.70
2019-05-14T09:24:04.358Z,13.70
2019-05-14T09:25:05.257Z,13.60
2019-05-14T09:26:05.143Z,13.60
2019-05-14T09:27:05.542Z,13.50
2019-05-14T09:28:04.730Z,13.40
2019-05-14T09:29:18.100Z,13.30
2019-05-14T09:30:05.149Z,13.30
2019-05-14T09:31:04.467Z,13.30
2019-05-14T09:32:04.244Z,13.20
2019-05-14T09:33:04.413Z,13.30
2019-05-14T09:34:04.332Z,13.30
2019-05-14T09:35:04.899Z,13.30
2019-05-14T09:36:14.499Z,13.30
2019-05-14T09:37:04.283Z,13.30
2019-05-14T09:38:04.284Z,13.30
2019-05-14T09:39:04.675Z,13.30
2019-05-14T09:40:05.035Z,13.30
2019-05-14T09:41:10.486Z,13.30
2019-05-14T09:42:04.871Z,13.30
2019-05-14T09:43:04.912Z,13.30
2019-05-14T09:44:04.949Z,13.30
2019-05-14T09:45:05.043Z,13.30
2019-05-14T09:46:05.129Z,13.30
2019-05-14T09:47:05.222Z,13.40
2019-05-14T09:48:04.302Z,13.40
2019-05-14T09:49:04.763Z,13.40
2019-05-14T09:50:16.250Z,13.30
2019-05-14T09:51:04.282Z,13.30
2019-05-14T09:52:05.035Z,13.30
2019-05-14T09:53:04.893Z,13.30
2019-05-14T09:54:05.161Z,13.20
2019-05-14T09:55:04.199Z,13.20
2019-05-14T09:56:04.390Z,13.20
2019-05-14T09:57:04.801Z,13.10
2019-05-14T09:58:04.588Z,13.10
2019-05-14T09:59:04.699Z,13.10
2019-05-14T10:00:05.022Z,13.00
2019-05-14T10:01:05.105Z,13.00
2019-05-14T10:02:05.177Z,12.90
2019-05-14T10:03:05.268Z,12.80
2019-05-14T10:04:04.233Z,12.80
2019-05-14T10:05:04.825Z,12.70
2019-05-14T10:06:05.084Z,12.60
2019-05-14T10:07:04.330Z,12.60
2019-05-14T10:08:04.404Z,12.50
2019-05-14T10:09:04.869Z,12.40
2019-05-14T10:10:04.755Z,12.40
2019-05-14T10:11:05.044Z,12.30
2019-05-14T10:12:04.787Z,12.20
2019-05-14T10:13:04.837Z,12.20
2019-05-14T10:14:04.463Z,12.20
2019-05-14T10:15:05.201Z,12.10
2019-05-14T10:16:04.495Z,12.10
2019-05-14T10:17:05.231Z,12.00
2019-05-14T10:18:05.179Z,12.00
2019-05-14T10:19:05.211Z,12.00
2019-05-14T10:20:04.234Z,11.90
2019-05-14T10:21:04.595Z,11.90
2019-05-14T10:22:04.395Z,11.90
2019-05-14T10:23:04.430Z,11.90
2019-05-14T10:24:04.888Z,11.90
2019-05-14T10:25:04.973Z,12.00
2019-05-14T10:26:05.055Z,12.10
2019-05-14T10:27:04.964Z,12.20
2019-05-14T10:28:04.854Z,12.30
2019-05-14T10:29:04.333Z,12.40
2019-05-14T10:30:04.293Z,12.40
2019-05-14T10:31:05.146Z,12.40
2019-05-14T10:32:04.442Z,12.50
2019-05-14T10:33:08.946Z,12.40
2019-05-14T10:34:04.594Z,12.40
2019-05-14T10:35:05.411Z,12.30
2019-05-14T10:36:04.816Z,12.20
2019-05-14T10:37:04.814Z,12.20
2019-05-14T10:38:04.473Z,12.10
2019-05-14T10:39:04.616Z,12.00
2019-05-14T10:40:05.042Z,11.90
2019-05-14T10:41:04.143Z,11.80
2019-05-14T10:42:04.498Z,11.70
2019-05-14T10:43:04.642Z,11.70
2019-05-14T10:44:04.695Z,11.60
2019-05-14T10:45:12.637Z,11.60
2019-05-14T10:46:04.645Z,11.60
2019-05-14T10:47:04.861Z,11.60
2019-05-14T10:48:05.046Z,11.60
2019-05-14T10:49:16.286Z,11.60
2019-05-14T10:50:04.365Z,11.60
2019-05-14T10:51:04.330Z,11.70
2019-05-14T10:52:04.414Z,11.70
2019-05-14T10:53:04.502Z,11.80
2019-05-14T10:54:18.531Z,11.80
2019-05-14T10:55:04.216Z,11.90
2019-05-14T10:56:04.693Z,11.90
2019-05-14T10:57:05.194Z,11.80
2019-05-14T10:58:04.308Z,11.80
2019-05-14T10:59:05.035Z,11.80
2019-05-14T11:00:05.224Z,11.80
2019-05-14T11:01:04.462Z,11.80
2019-05-14T11:02:04.892Z,11.70
2019-05-14T11:03:04.797Z,11.70
2019-05-14T11:04:04.242Z,11.50
2019-05-14T11:05:04.751Z,11.50
2019-05-14T11:06:04.413Z,11.40
2019-05-14T11:07:04.495Z,11.30
2019-05-14T11:08:05.131Z,11.30
2019-05-14T11:09:04.521Z,11.20
2019-05-14T11:10:04.884Z,11.10
2019-05-14T11:11:04.952Z,11.10
2019-05-14T11:12:04.642Z,11.10
2019-05-14T11:13:04.962Z,11.00
2019-05-14T11:14:04.384Z,11.00
2019-05-14T11:15:04.374Z,11.00
2019-05-14T11:16:04.486Z,11.00
2019-05-14T11:17:04.590Z,11.00
2019-05-14T11:18:04.339Z,11.00
2019-05-14T11:19:09.705Z,11.10
2019-05-14T11:20:05.204Z,11.10
2019-05-14T11:21:18.453Z,11.20
2019-05-14T11:22:04.943Z,11.20
2019-05-14T11:23:04.641Z,11.30
2019-05-14T11:24:04.719Z,11.30
2019-05-14T11:25:05.074Z,11.40
2019-05-14T11:26:04.961Z,11.40
2019-05-14T11:27:04.847Z,11.40
2019-05-14T11:28:04.926Z,11.40
2019-05-14T11:29:05.132Z,11.50
2019-05-14T11:30:04.372Z,11.50
2019-05-14T11:31:04.616Z,11.50
2019-05-14T11:32:04.723Z,11.40
2019-05-14T11:33:04.812Z,11.40
2019-05-14T11:34:04.770Z,11.40
2019-05-14T11:35:04.571Z,11.40
2019-05-14T11:36:05.799Z,11.40
2019-05-14T11:37:05.184Z,11.30
2019-05-14T11:38:23.974Z,11.30
2019-05-14T11:39:05.690Z,11.20
2019-05-14T11:40:05.086Z,11.20
2019-05-14T11:41:04.294Z,11.10
2019-05-14T11:42:04.568Z,11.10
2019-05-14T11:43:04.835Z,11.10
2019-05-14T11:44:04.881Z,11.10
2019-05-14T11:45:04.979Z,11.10
2019-05-14T11:46:04.296Z,11.00
2019-05-14T11:47:04.267Z,11.00
2019-05-14T11:48:04.789Z,11.00
2019-05-14T11:49:04.416Z,11.00
2019-05-14T11:50:04.573Z,11.10
2019-05-14T11:51:04.751Z,11.10
2019-05-14T11:52:08.368Z,11.20
2019-05-14T11:53:04.300Z,11.20
2019-05-14T11:54:05.166Z,11.20
2019-05-14T11:55:05.029Z,11.30
2019-05-14T11:56:04.387Z,11.30
2019-05-14T11:57:04.348Z,11.30
2019-05-14T11:58:04.385Z,11.30
2019-05-14T11:59:04.695Z,11.30
2019-05-14T12:00:04.979Z,11.40
2019-05-14T12:01:05.115Z,11.40
2019-05-14T12:02:04.865Z,11.50
2019-05-14T12:03:04.677Z,11.50
2019-05-14T12:04:09.973Z,11.60
2019-05-14T12:05:04.402Z,11.70
2019-05-14T12:06:04.531Z,11.70
2019-05-14T12:07:04.572Z,11.80
2019-05-14T12:08:04.591Z,11.90
2019-05-14T12:09:04.650Z,12.00
2019-05-14T12:10:04.869Z,12.10
2019-05-14T12:11:04.973Z,12.10
2019-05-14T12:12:04.472Z,12.10
2019-05-14T12:13:05.144Z,12.00
2019-05-14T12:14:04.191Z,12.00
2019-05-14T12:15:04.393Z,12.00
2019-05-14T12:16:04.617Z,11.90
2019-05-14T12:17:04.288Z,11.90
2019-05-14T12:18:04.862Z,11.80
2019-05-14T12:19:05.104Z,11.80
2019-05-14T12:20:04.263Z,11.70
2019-05-14T12:21:04.745Z,11.70
2019-05-14T12:22:08.283Z,11.70
2019-05-14T12:23:04.683Z,11.60
2019-05-14T12:24:05.773Z,11.50
2019-05-14T12:25:05.075Z,11.50
2019-05-14T12:26:04.945Z,11.40
2019-05-14T12:27:05.036Z,11.40
2019-05-14T12:28:04.299Z,11.40
2019-05-14T12:29:04.246Z,11.40
2019-05-14T12:30:04.646Z,11.30
2019-05-14T12:31:04.831Z,11.30
2019-05-14T12:32:04.841Z,11.30
2019-05-14T12:33:04.683Z,11.30
2019-05-14T12:34:04.716Z,11.30
2019-05-14T12:35:04.322Z,11.30
2019-05-14T12:36:04.152Z,11.30
2019-05-14T12:37:04.901Z,11.30
2019-05-14T12:38:04.434Z,11.30
2019-05-14T12:39:04.581Z,11.30
2019-05-14T12:40:04.444Z,11.30
2019-05-14T12:41:04.365Z,11.30
2019-05-14T12:42:04.473Z,11.30
2019-05-14T12:43:04.967Z,11.30
2019-05-14T12:44:09.968Z,11.40
2019-05-14T12:45:04.495Z,11.40
2019-05-14T12:46:04.998Z,11.50
2019-05-14T12:47:05.092Z,11.60
2019-05-14T12:48:04.220Z,11.60
2019-05-14T12:49:04.981Z,11.70
2019-05-14T12:50:04.190Z,11.70
2019-05-14T12:51:05.089Z,11.80
2019-05-14T12:52:18.826Z,11.70
2019-05-14T12:53:05.027Z,11.70
2019-05-14T12:54:05.114Z,11.70
2019-05-14T12:55:04.586Z,11.70
2019-05-14T12:56:04.745Z,11.70
2019-05-14T12:57:04.951Z,11.70
2019-05-14T12:58:04.579Z,11.70
2019-05-14T12:59:04.596Z,11.80
2019-05-14T13:00:05.162Z,11.80
2019-05-14T13:01:04.983Z,11.80